createdAt,value
2018-11-10T00:00:26.590Z,16.10
2018-11-10T00:02:54.935Z,17.60
2018-11-10T00:05:23.260Z,17.33
2018-11-10T00:07:51.659Z,16.37
2018-11-10T00:10:19.917Z,17.60
2018-11-10T00:12:48.270Z,17.10
2018-11-10T00:15:16.596Z,20.10
2018-11-10T00:17:44.929Z,16.00
2018-11-10T00:20:13.426Z,16.47
2018-11-10T00:22:41.600Z,16.50
2018-11-10T00:25:09.939Z,17.27
2018-11-10T00:27:38.278Z,16.87
2018-11-10T00:30:07.187Z,18.00
2018-11-10T00:32:34.939Z,17.47
2018-11-10T00:35:03.265Z,17.60
2018-11-10T00:37:31.596Z,16.43
2018-11-10T00:40:00.500Z,19.20
2018-11-10T00:42:28.858Z,17.57
2018-11-10T00:44:57.182Z,17.10
2018-11-10T00:47:25.516Z,16.13
2018-11-10T00:49:53.849Z,16.70
2018-11-10T00:52:22.241Z,18.23
2018-11-10T00:54:50.581Z,17.00
2018-11-10T00:57:18.636Z,16.17
2018-11-10T00:59:47.566Z,16.23
2018-11-10T01:02:15.910Z,16.70
2018-11-10T01:04:43.848Z,16.63
2018-11-10T01:07:12.770Z,15.97
2018-11-10T01:09:40.520Z,17.17
2018-11-10T01:12:09.353Z,16.90
2018-11-10T01:14:37.712Z,17.10
2018-11-10T01:17:06.625Z,17.63
2018-11-10T01:19:34.955Z,16.77
2018-11-10T01:22:02.714Z,16.60
2018-11-10T01:24:31.049Z,16.97
2018-11-10T01:26:59.407Z,17.57
2018-11-10T01:29:28.330Z,16.50
2018-11-10T01:31:56.668Z,16.60
2018-11-10T01:34:25.022Z,18.37
2018-11-10T01:36:52.786Z,16.63
2018-11-10T01:39:21.707Z,18.03
2018-11-10T01:41:50.080Z,16.50
2018-11-10T01:44:18.414Z,16.60
2018-11-10T01:46:46.987Z,16.50
2018-11-10T01:49:14.536Z,16.50
2018-11-10T01:51:42.872Z,17.33
2018-11-10T01:54:11.236Z,16.47
2018-11-10T01:56:40.142Z,16.87
2018-11-10T01:59:08.495Z,17.17
2018-11-10T02:01:36.246Z,17.10
2018-11-10T02:04:04.590Z,16.73
2018-11-10T02:06:33.521Z,17.97
2018-11-10T02:09:01.856Z,19.73
2018-11-10T02:11:30.186Z,21.10
2018-11-10T02:13:58.524Z,20.27
2018-11-10T02:16:26.844Z,16.80
2018-11-10T02:18:55.193Z,18.23
2018-11-10T02:21:23.544Z,17.27
2018-11-10T02:23:51.301Z,16.30
2018-11-10T02:26:20.220Z,17.07
2018-11-10T02:28:47.984Z,16.57
2018-11-10T02:31:16.897Z,16.67
2018-11-10T02:33:44.658Z,16.50
2018-11-10T02:36:13.580Z,16.43
2018-11-10T02:38:41.985Z,16.70
2018-11-10T02:41:10.347Z,17.33
2018-11-10T02:43:38.703Z,16.87
2018-11-10T02:46:06.466Z,17.00
2018-11-10T02:48:35.388Z,16.40
2018-11-10T02:51:03.712Z,17.33
2018-11-10T02:53:31.965Z,17.10
2018-11-10T02:56:00.419Z,16.87
2018-11-10T02:58:28.176Z,17.23
2018-11-10T03:00:57.100Z,17.17
2018-11-10T03:03:24.841Z,17.20
2018-11-10T03:05:53.181Z,16.80
2018-11-10T03:08:22.101Z,17.63
2018-11-10T03:10:50.481Z,18.40
2018-11-10T03:13:18.189Z,17.50
2018-11-10T03:15:47.101Z,17.20
2018-11-10T03:18:15.430Z,17.57
2018-11-10T03:20:43.761Z,16.73
2018-11-10T03:23:12.093Z,17.97
2018-11-10T03:25:40.427Z,18.87
2018-11-10T03:28:08.188Z,18.00
2018-11-10T03:30:37.094Z,18.20
2018-11-10T03:33:04.843Z,20.00
2018-11-10T03:35:33.776Z,18.20
2018-11-10T03:38:02.104Z,18.70
2018-11-10T03:40:30.436Z,18.93
2018-11-10T03:42:58.194Z,18.13
2018-11-10T03:45:27.422Z,19.23
2018-11-10T03:47:55.164Z,17.93
2018-11-10T03:50:23.514Z,19.07
2018-11-10T03:52:52.433Z,18.47
2018-11-10T03:55:20.192Z,19.57
2018-11-10T03:57:49.126Z,19.40
2018-11-10T04:00:17.486Z,20.10
2018-11-10T04:02:45.826Z,20.37
2018-11-10T04:05:14.165Z,19.90
2018-11-10T04:07:42.522Z,20.73
2018-11-10T04:10:10.865Z,21.60
2018-11-10T04:12:39.195Z,22.03
2018-11-10T04:15:06.941Z,22.33
2018-11-10T04:17:35.854Z,22.53
2018-11-10T04:20:04.196Z,22.60
2018-11-10T04:22:32.536Z,21.60
2018-11-10T04:25:00.876Z,21.83
2018-11-10T04:27:29.204Z,22.10
2018-11-10T04:29:57.541Z,21.90
2018-11-10T04:32:25.597Z,21.83
2018-11-10T04:34:53.940Z,22.87
2018-11-10T04:37:22.268Z,22.30
2018-11-10T04:39:50.603Z,22.07
2018-11-10T04:42:19.556Z,22.57
2018-11-10T04:44:47.891Z,22.27
2018-11-10T04:47:16.155Z,22.30
2018-11-10T04:49:44.594Z,21.93
2018-11-10T04:52:12.904Z,22.83
2018-11-10T04:54:41.237Z,23.13
2018-11-10T04:57:09.571Z,29.53
2018-11-10T04:59:37.347Z,23.93
2018-11-10T05:02:06.263Z,23.13
2018-11-10T05:04:34.010Z,23.77
2018-11-10T05:07:02.913Z,23.37
2018-11-10T05:09:31.254Z,24.00
2018-11-10T05:11:59.603Z,23.50
2018-11-10T05:14:27.943Z,22.63
2018-11-10T05:16:56.317Z,24.23
2018-11-10T05:19:24.648Z,24.20
2018-11-10T05:21:52.398Z,24.20
2018-11-10T05:24:20.733Z,25.70
2018-11-10T05:26:49.645Z,24.73
2018-11-10T05:29:17.388Z,26.33
2018-11-10T05:31:45.716Z,31.73
2018-11-10T05:34:14.045Z,31.47
2018-11-10T05:36:42.965Z,28.90
2018-11-10T05:39:10.718Z,30.43
2018-11-10T05:41:39.640Z,30.27
2018-11-10T05:44:07.566Z,30.50
2018-11-10T05:46:36.308Z,32.03
2018-11-10T05:49:04.441Z,31.63
2018-11-10T05:51:33.362Z,32.47
2018-11-10T05:54:01.724Z,32.37
2018-11-10T05:56:30.275Z,31.87
2018-11-10T05:58:58.388Z,33.30
2018-11-10T06:01:26.760Z,34.43
2018-11-10T06:03:54.526Z,34.00
2018-11-10T06:06:23.474Z,32.30
2018-11-10T06:08:51.838Z,32.73
2018-11-10T06:11:20.189Z,31.97
2018-11-10T06:13:47.965Z,31.80
2018-11-10T06:16:16.426Z,33.07
2018-11-10T06:18:45.275Z,33.30
2018-11-10T06:21:13.580Z,79.23
2018-11-10T06:23:41.941Z,84.00
2018-11-10T06:26:10.365Z,35.60
2018-11-10T06:28:38.657Z,33.37
2018-11-10T06:31:06.409Z,32.90
2018-11-10T06:33:35.331Z,33.67
2018-11-10T06:36:03.086Z,34.13
2018-11-10T06:38:31.999Z,33.30
2018-11-10T06:40:59.784Z,32.90
2018-11-10T06:43:29.543Z,33.80
2018-11-10T06:45:57.321Z,34.73
2018-11-10T06:48:25.687Z,35.10
2018-11-10T06:50:53.427Z,41.40
2018-11-10T06:53:21.754Z,39.43
2018-11-10T06:55:50.098Z,36.73
2018-11-10T06:58:19.026Z,35.83
2018-11-10T07:00:46.769Z,36.63
2018-11-10T07:03:15.788Z,35.53
2018-11-10T07:05:43.489Z,35.67
2018-11-10T07:08:12.420Z,44.17
2018-11-10T07:10:41.052Z,64.27
2018-11-10T07:13:08.525Z,71.67
2018-11-10T07:15:37.204Z,184.10
2018-11-10T07:18:05.225Z,82.33
2018-11-10T07:20:33.553Z,37.37
2018-11-10T07:23:02.506Z,35.93
2018-11-10T07:25:30.269Z,34.97
2018-11-10T07:27:59.203Z,35.87
2018-11-10T07:30:27.537Z,36.67
2018-11-10T07:32:55.869Z,38.70
2018-11-10T07:35:23.634Z,37.43
2018-11-10T07:37:52.546Z,37.77
2018-11-10T07:40:20.395Z,43.97
2018-11-10T07:42:48.677Z,37.80
2018-11-10T07:45:17.568Z,37.30
2018-11-10T07:47:45.914Z,37.50
2018-11-10T07:50:13.669Z,39.90
2018-11-10T07:52:42.001Z,39.10
2018-11-10T07:55:12.321Z,41.00
2018-11-10T07:57:39.109Z,41.00
2018-11-10T08:00:08.011Z,41.33
2018-11-10T08:02:36.360Z,48.47
2018-11-10T08:05:05.237Z,51.57
2018-11-10T08:07:33.349Z,92.97
2018-11-10T08:10:01.135Z,54.53
2018-11-10T08:12:30.041Z,61.77
2018-11-10T08:14:58.775Z,38.33
2018-11-10T08:17:26.795Z,37.93
2018-11-10T08:19:55.016Z,38.63
2018-11-10T08:22:23.460Z,68.40
2018-11-10T08:24:51.230Z,40.07
2018-11-10T08:27:19.543Z,38.90
2018-11-10T08:29:48.452Z,39.47
2018-11-10T08:32:16.794Z,41.43
2018-11-10T08:34:44.540Z,50.13
2018-11-10T08:37:13.450Z,65.87
2018-11-10T08:39:41.789Z,50.43
2018-11-10T08:42:09.543Z,42.20
2018-11-10T08:44:38.456Z,48.23
2018-11-10T08:47:06.211Z,46.87
2018-11-10T08:49:34.541Z,44.37
2018-11-10T08:52:03.457Z,45.73
2018-11-10T08:54:31.224Z,92.47
2018-11-10T08:57:00.155Z,47.10
2018-11-10T08:59:27.914Z,44.60
2018-11-10T09:01:56.829Z,45.13
2018-11-10T09:04:24.633Z,43.63
2018-11-10T09:06:53.609Z,45.20
2018-11-10T09:09:21.946Z,45.67
2018-11-10T09:11:49.781Z,80.07
2018-11-10T09:14:18.062Z,50.40
2018-11-10T09:16:46.980Z,51.00
2018-11-10T09:19:15.353Z,47.03
2018-11-10T09:21:43.156Z,44.63
2018-11-10T09:24:12.045Z,43.90
2018-11-10T09:26:41.272Z,44.27
2018-11-10T09:29:09.635Z,45.30
2018-11-10T09:31:37.972Z,45.73
2018-11-10T09:34:06.333Z,44.83
2018-11-10T09:36:34.209Z,44.63
2018-11-10T09:39:03.004Z,46.23
2018-11-10T09:41:31.658Z,45.73
2018-11-10T09:44:00.273Z,46.97
2018-11-10T09:46:28.597Z,46.37
2018-11-10T09:48:56.950Z,45.40
2018-11-10T09:51:24.698Z,47.40
2018-11-10T09:53:53.036Z,46.77
2018-11-10T09:56:21.994Z,45.50
2018-11-10T09:58:49.759Z,48.80
2018-11-10T10:01:18.833Z,47.10
2018-11-10T10:03:47.172Z,46.40
2018-11-10T10:06:15.504Z,47.83
2018-11-10T10:08:43.951Z,44.83
2018-11-10T10:11:12.268Z,44.30
2018-11-10T10:13:40.046Z,44.37
2018-11-10T10:16:09.010Z,44.63
2018-11-10T10:18:36.973Z,60.73
2018-11-10T10:21:05.649Z,49.77
2018-11-10T10:23:33.983Z,46.00
2018-11-10T10:26:02.335Z,46.93
2018-11-10T10:28:30.686Z,44.60
2018-11-10T10:30:58.429Z,46.60
2018-11-10T10:33:27.344Z,48.07
2018-11-10T10:35:55.665Z,45.97
2018-11-10T10:38:23.425Z,45.00
2018-11-10T10:40:52.359Z,47.97
2018-11-10T10:43:20.108Z,48.83
2018-11-10T10:45:49.034Z,48.80
2018-11-10T10:48:17.376Z,49.17
2018-11-10T10:50:45.172Z,48.77
2018-11-10T10:53:13.510Z,50.63
2018-11-10T10:55:42.496Z,49.67
2018-11-10T10:58:10.216Z,50.00
2018-11-10T11:00:39.129Z,50.63
2018-11-10T11:03:07.019Z,57.50
2018-11-10T11:05:35.889Z,85.40
2018-11-10T11:08:03.975Z,62.60
2018-11-10T11:10:32.013Z,71.50
2018-11-10T11:13:00.352Z,51.10
2018-11-10T11:15:29.426Z,48.93
2018-11-10T11:17:57.606Z,50.17
2018-11-10T11:20:25.936Z,49.50
2018-11-10T11:22:53.692Z,74.47
2018-11-10T11:25:22.601Z,51.00
2018-11-10T11:27:50.363Z,48.43
2018-11-10T11:30:19.331Z,49.17
2018-11-10T11:32:47.758Z,49.40
2018-11-10T11:35:15.523Z,51.93
2018-11-10T11:37:44.460Z,59.70
2018-11-10T11:40:12.809Z,53.47
2018-11-10T11:42:41.166Z,48.50
2018-11-10T11:45:09.494Z,51.07
2018-11-10T11:47:37.244Z,51.67
2018-11-10T11:50:05.578Z,50.23
2018-11-10T11:52:34.535Z,49.10
2018-11-10T11:55:02.873Z,50.77
2018-11-10T11:57:31.272Z,48.70
2018-11-10T11:59:59.579Z,74.30
2018-11-10T12:02:27.373Z,55.43
2018-11-10T12:04:55.712Z,61.07
2018-11-10T12:07:24.637Z,56.77
2018-11-10T12:09:52.426Z,53.33
2018-11-10T12:12:21.435Z,49.30
2018-11-10T12:14:49.718Z,51.43
2018-11-10T12:17:18.059Z,52.30
2018-11-10T12:19:46.391Z,51.23
2018-11-10T12:22:14.239Z,51.00
2018-11-10T12:24:42.531Z,47.33
2018-11-10T12:27:11.454Z,49.90
2018-11-10T12:29:39.228Z,49.90
2018-11-10T12:32:07.573Z,50.13
2018-11-10T12:34:35.888Z,48.53
2018-11-10T12:37:04.259Z,49.27
2018-11-10T12:39:33.214Z,49.77
2018-11-10T12:42:01.550Z,49.83
2018-11-10T12:44:29.894Z,48.67
2018-11-10T12:46:57.643Z,48.47
2018-11-10T12:49:26.581Z,50.30
2018-11-10T12:51:54.327Z,50.07
2018-11-10T12:54:23.245Z,50.40
2018-11-10T12:56:51.580Z,53.80
2018-11-10T12:59:19.705Z,49.60
2018-11-10T13:01:48.434Z,52.00
2018-11-10T13:04:16.999Z,48.47
2018-11-10T13:06:45.380Z,46.93
2018-11-10T13:09:13.724Z,49.17
2018-11-10T13:11:41.629Z,49.60
2018-11-10T13:14:10.411Z,51.60
2018-11-10T13:16:38.819Z,44.50
2018-11-10T13:19:06.648Z,47.30
2018-11-10T13:21:35.891Z,46.70
2018-11-10T13:24:04.410Z,50.10
2018-11-10T13:26:32.984Z,49.00
2018-11-10T13:29:01.467Z,49.47
2018-11-10T13:31:29.990Z,50.17
2018-11-10T13:33:59.708Z,48.20
2018-11-10T13:36:28.364Z,77.73
2018-11-10T13:38:57.081Z,53.60
2018-11-10T13:41:25.513Z,50.33
2018-11-10T13:43:55.569Z,47.07
2018-11-10T13:46:22.649Z,48.97
2018-11-10T13:48:51.003Z,44.83
2018-11-10T13:53:48.093Z,44.93
2018-11-10T13:56:16.746Z,46.10
2018-11-10T13:58:45.146Z,45.73
2018-11-10T14:01:12.905Z,45.13
2018-11-10T14:03:41.862Z,42.87
2018-11-10T14:06:10.536Z,44.37
2018-11-10T14:08:39.029Z,44.93
2018-11-10T14:11:07.780Z,41.63
2018-11-10T14:13:36.142Z,43.60
2018-11-10T14:16:05.129Z,44.40
2018-11-10T14:18:33.713Z,43.50
2018-11-10T14:21:03.051Z,45.70
2018-11-10T14:23:31.205Z,46.67
2018-11-10T14:25:59.565Z,46.33
2018-11-10T14:28:28.894Z,47.10
2018-11-10T14:30:58.143Z,45.13
2018-11-10T14:33:25.675Z,44.73
2018-11-10T14:35:54.384Z,45.53
2018-11-10T14:38:22.809Z,46.93
2018-11-10T14:40:51.422Z,47.13
2018-11-10T14:43:20.288Z,46.43
2018-11-10T14:45:47.885Z,49.17
2018-11-10T14:48:16.836Z,48.93
2018-11-10T14:50:44.627Z,48.97
2018-11-10T14:53:13.061Z,48.27
2018-11-10T14:55:42.038Z,49.90
2018-11-10T14:58:10.654Z,53.73
2018-11-10T15:00:39.148Z,54.13
2018-11-10T15:03:07.887Z,65.10
2018-11-10T15:05:36.508Z,52.73
2018-11-10T15:08:04.929Z,52.67
2018-11-10T15:10:33.279Z,51.93
2018-11-10T15:13:01.983Z,50.57
2018-11-10T15:15:30.375Z,52.60
2018-11-10T15:17:58.787Z,50.97
2018-11-10T15:20:27.093Z,53.07
2018-11-10T15:22:56.641Z,52.90
2018-11-10T15:25:25.184Z,52.40
2018-11-10T15:27:53.765Z,51.63
2018-11-10T15:30:21.521Z,75.87
2018-11-10T15:32:50.441Z,86.77
2018-11-10T15:35:18.800Z,51.73
2018-11-10T15:37:47.664Z,52.07
2018-11-10T15:40:15.425Z,50.23
2018-11-10T15:42:44.667Z,51.43
2018-11-10T15:45:13.638Z,52.80
2018-11-10T15:47:41.968Z,57.30
2018-11-10T15:50:10.480Z,60.40
2018-11-10T15:52:39.164Z,61.13
2018-11-10T15:55:07.460Z,58.97
2018-11-10T15:57:35.801Z,58.00
2018-11-10T16:00:04.574Z,60.93
2018-11-10T16:02:32.916Z,58.73
2018-11-10T16:05:00.680Z,58.13
2018-11-10T16:07:29.604Z,57.97
2018-11-10T16:09:58.035Z,57.50
2018-11-10T16:12:26.337Z,59.40
2018-11-10T16:14:54.092Z,59.00
2018-11-10T16:17:22.449Z,348.73
2018-11-10T16:19:51.438Z,72.07
2018-11-10T16:22:19.197Z,61.57
2018-11-10T16:24:48.124Z,59.70
2018-11-10T16:27:15.876Z,59.60
2018-11-10T16:29:44.233Z,62.07
2018-11-10T16:32:12.580Z,60.93
2018-11-10T16:34:41.583Z,62.33
2018-11-10T16:37:09.887Z,63.47
2018-11-10T16:39:37.676Z,62.43
2018-11-10T16:42:06.282Z,62.47
2018-11-10T16:44:34.687Z,62.90
2018-11-10T16:47:03.565Z,63.30
2018-11-10T16:49:31.335Z,63.90
2018-11-10T16:52:00.251Z,68.47
2018-11-10T16:54:28.005Z,64.63
2018-11-10T16:56:56.950Z,65.67
2018-11-10T16:59:25.285Z,65.57
2018-11-10T17:01:53.046Z,64.30
2018-11-10T17:04:21.977Z,64.23
2018-11-10T17:06:50.356Z,63.90
2018-11-10T17:09:19.297Z,65.10
2018-11-10T17:11:47.053Z,65.63
2018-11-10T17:14:15.975Z,67.47
2018-11-10T17:16:43.796Z,66.13
2018-11-10T17:19:12.727Z,66.67
2018-11-10T17:21:41.181Z,67.37
2018-11-10T17:24:09.796Z,70.47
2018-11-10T17:26:37.558Z,121.37
2018-11-10T17:29:06.519Z,76.80
2018-11-10T17:31:35.236Z,71.43
2018-11-10T17:34:03.012Z,70.57
2018-11-10T17:36:31.941Z,72.87
2018-11-10T17:38:59.738Z,74.53
2018-11-10T17:41:28.119Z,78.10
2018-11-10T17:43:56.487Z,84.03
2018-11-10T17:46:25.490Z,92.73
2018-11-10T17:48:53.236Z,95.73
2018-11-10T17:51:21.598Z,96.53
2018-11-10T17:53:50.524Z,78.10
2018-11-10T17:56:18.884Z,73.00
2018-11-10T17:58:46.728Z,74.10
2018-11-10T18:01:15.582Z,68.43
2018-11-10T18:03:43.982Z,70.83
2018-11-10T18:06:12.320Z,64.20
2018-11-10T18:08:40.110Z,61.73
2018-11-10T18:11:08.447Z,65.13
2018-11-10T18:13:36.782Z,62.73
2018-11-10T18:16:05.786Z,63.47
2018-11-10T18:18:34.124Z,69.50
2018-11-10T18:21:02.461Z,64.53
2018-11-10T18:23:30.822Z,63.70
2018-11-10T18:25:59.258Z,88.90
2018-11-10T18:28:28.189Z,81.03
2018-11-10T18:30:56.716Z,67.50
2018-11-10T18:33:25.601Z,68.50
2018-11-10T18:35:54.572Z,71.17
2018-11-10T18:38:22.423Z,65.97
2018-11-10T18:40:51.404Z,68.53
2018-11-10T18:43:19.109Z,69.53
2018-11-10T18:45:48.140Z,69.73
2018-11-10T18:48:16.480Z,72.93
2018-11-10T18:50:46.631Z,73.47
2018-11-10T18:53:14.967Z,72.23
2018-11-10T18:55:43.328Z,71.60
2018-11-10T18:58:11.950Z,175.23
2018-11-10T19:00:40.261Z,203.87
2018-11-10T19:03:09.154Z,105.80
2018-11-10T19:05:37.509Z,106.97
2018-11-10T19:08:05.276Z,86.37
2018-11-10T19:10:34.202Z,84.40
2018-11-10T19:13:02.753Z,80.60
2018-11-10T19:15:31.185Z,79.17
2018-11-10T19:17:59.262Z,79.63
2018-11-10T19:20:29.488Z,81.50
2018-11-10T19:22:58.818Z,81.33
2018-11-10T19:25:27.272Z,85.00
2018-11-10T19:27:55.876Z,81.67
2018-11-10T19:30:24.841Z,79.70
2018-11-10T19:32:53.135Z,81.77
2018-11-10T19:35:21.451Z,76.37
2018-11-10T19:37:49.269Z,77.17
2018-11-10T19:40:18.212Z,79.40
2018-11-10T19:42:46.042Z,80.00
2018-11-10T19:45:14.986Z,75.07
2018-11-10T19:47:42.731Z,76.20
2018-11-10T19:50:11.134Z,77.60
2018-11-10T19:52:40.047Z,77.83
2018-11-10T19:55:08.395Z,75.37
2018-11-10T19:57:36.745Z,76.80
2018-11-10T20:00:05.076Z,81.07
2018-11-10T20:02:33.426Z,79.63
2018-11-10T20:05:01.291Z,74.97
2018-11-10T20:07:30.013Z,73.93
2018-11-10T20:09:58.940Z,72.00
2018-11-10T20:12:26.782Z,73.93
2018-11-10T20:14:55.829Z,73.43
2018-11-10T20:17:24.160Z,69.37
2018-11-10T20:19:51.919Z,72.87
2018-11-10T20:22:21.124Z,77.13
2018-11-10T20:24:49.338Z,73.93
2018-11-10T20:27:17.722Z,72.23
2018-11-10T20:29:46.302Z,72.40
2018-11-10T20:32:14.085Z,65.53
2018-11-10T20:34:43.212Z,63.10
2018-11-10T20:37:11.551Z,61.07
2018-11-10T20:39:39.896Z,65.20
2018-11-10T20:42:08.296Z,63.77
2018-11-10T20:44:36.729Z,63.90
2018-11-10T20:47:04.505Z,65.53
2018-11-10T20:49:33.783Z,72.43
2018-11-10T20:52:02.426Z,67.67
2018-11-10T20:54:32.287Z,69.93
2018-11-10T20:57:00.139Z,69.97
2018-11-10T20:59:28.527Z,69.73
2018-11-10T21:01:56.877Z,65.97
2018-11-10T21:04:25.235Z,63.07
2018-11-10T21:06:53.371Z,63.47
2018-11-10T21:09:21.885Z,61.90
2018-11-10T21:11:50.627Z,62.77
2018-11-10T21:14:18.382Z,59.37
2018-11-10T21:16:46.718Z,62.43
2018-11-10T21:19:15.665Z,60.63
2018-11-10T21:21:44.198Z,63.13
2018-11-10T21:24:11.948Z,62.40
2018-11-10T21:26:40.914Z,61.93
2018-11-10T21:29:10.408Z,62.50
2018-11-10T21:31:38.664Z,64.10
2018-11-10T21:34:07.141Z,65.20
2018-11-10T21:36:35.490Z,66.13
2018-11-10T21:39:03.861Z,63.83
2018-11-10T21:41:32.292Z,98.10
2018-11-10T21:44:00.776Z,64.27
2018-11-10T21:46:29.341Z,63.57
2018-11-10T21:48:57.793Z,63.63
2018-11-10T21:51:26.244Z,81.67
2018-11-10T21:53:54.640Z,72.63
2018-11-10T21:56:23.198Z,64.27
2018-11-10T21:58:51.760Z,63.73
2018-11-10T22:01:20.098Z,65.03
2018-11-10T22:03:47.910Z,66.33
2018-11-10T22:06:16.997Z,67.70
2018-11-10T22:08:45.412Z,68.00
2018-11-10T22:11:13.702Z,69.80
2018-11-10T22:13:42.227Z,67.17
2018-11-10T22:16:10.620Z,71.03
2018-11-10T22:18:39.009Z,83.10
2018-11-10T22:21:07.652Z,66.57
2018-11-10T22:23:36.732Z,66.00
2018-11-10T22:26:04.970Z,70.90
2018-11-10T22:28:32.738Z,66.93
2018-11-10T22:31:01.794Z,68.20
2018-11-10T22:33:31.993Z,70.57
2018-11-10T22:36:03.202Z,69.07
2018-11-10T22:38:32.373Z,69.20
2018-11-10T22:41:00.483Z,70.00
2018-11-10T22:43:29.573Z,68.50
2018-11-10T22:45:57.910Z,70.63
2018-11-10T22:48:26.541Z,72.70
2018-11-10T22:50:54.683Z,70.67
2018-11-10T22:53:23.019Z,69.03
2018-11-10T22:55:50.929Z,70.53
2018-11-10T22:58:19.256Z,72.60
2018-11-10T23:00:48.309Z,71.40
2018-11-10T23:03:16.643Z,71.63
2018-11-10T23:05:45.022Z,70.40
2018-11-10T23:08:12.936Z,70.90
2018-11-10T23:10:41.788Z,71.93
2018-11-10T23:13:10.285Z,70.40
2018-11-10T23:15:38.749Z,69.90
2018-11-10T23:18:07.406Z,70.30
2018-11-10T23:20:35.918Z,74.07
2018-11-10T23:23:04.355Z,70.60
2018-11-10T23:25:32.689Z,70.90
2018-11-10T23:28:00.469Z,71.13
2018-11-10T23:30:29.623Z,70.13
2018-11-10T23:32:59.253Z,71.77
2018-11-10T23:35:27.631Z,68.80
2018-11-10T23:37:55.932Z,70.87
2018-11-10T23:40:23.677Z,72.33
2018-11-10T23:42:52.594Z,72.80
2018-11-10T23:45:20.349Z,75.83
2018-11-10T23:47:48.683Z,69.93
2018-11-10T23:50:17.014Z,71.87
2018-11-10T23:52:45.368Z,71.07
2018-11-10T23:55:14.269Z,71.33
2018-11-10T23:57:42.610Z,69.17
